sensor_id;sensor_type;location;lat;lon;timestamp;P1;durP1;ratioP1;P2;durP2;ratioP2
44816;SDS011;30529;53.570;9.964;2023-03-01T00:02:04;12.47;;;6.10;;
44816;SDS011;30529;53.570;9.964;2023-03-01T00:04:30;14.83;;;6.43;;
44816;SDS011;30529;53.570;9.964;2023-03-01T00:06:57;13.40;;;6.17;;
44816;SDS011;30529;53.570;9.964;2023-03-01T00:09:22;11.30;;;6.37;;
44816;SDS011;30529;53.570;9.964;2023-03-01T00:11:49;12.10;;;5.57;;
44816;SDS011;30529;53.570;9.964;2023-03-01T00:14:15;13.57;;;5.90;;
44816;SDS011;30529;53.570;9.964;2023-03-01T00:16:44;12.50;;;6.40;;
44816;SDS011;30529;53.570;9.964;2023-03-01T00:19:12;12.70;;;6.17;;
44816;SDS011;30529;53.570;9.964;2023-03-01T00:21:40;14.47;;;6.83;;
44816;SDS011;30529;53.570;9.964;2023-03-01T00:24:07;11.20;;;5.53;;
44816;SDS011;30529;53.570;9.964;2023-03-01T00:26:33;10.70;;;5.57;;
44816;SDS011;30529;53.570;9.964;2023-03-01T00:28:59;12.00;;;5.33;;
44816;SDS011;30529;53.570;9.964;2023-03-01T00:31:29;9.23;;;5.40;;
44816;SDS011;30529;53.570;9.964;2023-03-01T00:33:57;12.73;;;6.33;;
44816;SDS011;30529;53.570;9.964;2023-03-01T00:36:25;13.17;;;6.20;;
44816;SDS011;30529;53.570;9.964;2023-03-01T00:38:53;11.03;;;5.57;;
44816;SDS011;30529;53.570;9.964;2023-03-01T00:41:20;12.40;;;5.77;;
44816;SDS011;30529;53.570;9.964;2023-03-01T00:43:48;9.47;;;4.93;;
44816;SDS011;30529;53.570;9.964;2023-03-01T00:46:16;10.27;;;5.20;;
44816;SDS011;30529;53.570;9.964;2023-03-01T00:48:44;9.87;;;5.10;;
44816;SDS011;30529;53.570;9.964;2023-03-01T00:51:15;8.23;;;4.90;;
44816;SDS011;30529;53.570;9.964;2023-03-01T00:53:43;8.77;;;4.83;;
44816;SDS011;30529;53.570;9.964;2023-03-01T00:56:10;7.57;;;4.50;;
44816;SDS011;30529;53.570;9.964;2023-03-01T00:58:38;9.30;;;5.10;;
44816;SDS011;30529;53.570;9.964;2023-03-01T01:01:08;12.97;;;5.53;;
44816;SDS011;30529;53.570;9.964;2023-03-01T01:03:43;10.30;;;5.00;;
44816;SDS011;30529;53.570;9.964;2023-03-01T01:06:18;8.27;;;5.07;;
44816;SDS011;30529;53.570;9.964;2023-03-01T01:08:47;9.30;;;4.83;;
44816;SDS011;30529;53.570;9.964;2023-03-01T01:11:13;9.43;;;5.33;;
44816;SDS011;30529;53.570;9.964;2023-03-01T01:13:40;8.73;;;4.90;;
44816;SDS011;30529;53.570;9.964;2023-03-01T01:16:07;9.37;;;5.00;;
44816;SDS011;30529;53.570;9.964;2023-03-01T01:18:33;12.00;;;5.33;;
44816;SDS011;30529;53.570;9.964;2023-03-01T01:21:03;12.07;;;5.50;;
44816;SDS011;30529;53.570;9.964;2023-03-01T01:23:31;14.50;;;5.20;;
44816;SDS011;30529;53.570;9.964;2023-03-01T01:25:57;7.10;;;4.33;;
44816;SDS011;30529;53.570;9.964;2023-03-01T01:28:28;9.27;;;5.20;;
44816;SDS011;30529;53.570;9.964;2023-03-01T01:30:54;9.47;;;5.13;;
44816;SDS011;30529;53.570;9.964;2023-03-01T01:33:20;7.77;;;4.70;;
44816;SDS011;30529;53.570;9.964;2023-03-01T01:35:46;9.13;;;4.57;;
44816;SDS011;30529;53.570;9.964;2023-03-01T01:38:12;7.93;;;4.67;;
44816;SDS011;30529;53.570;9.964;2023-03-01T01:40:48;14.70;;;5.07;;
44816;SDS011;30529;53.570;9.964;2023-03-01T01:43:17;11.93;;;4.90;;
44816;SDS011;30529;53.570;9.964;2023-03-01T01:45:49;9.27;;;4.17;;
44816;SDS011;30529;53.570;9.964;2023-03-01T01:48:22;8.43;;;4.73;;
44816;SDS011;30529;53.570;9.964;2023-03-01T01:50:57;10.03;;;4.83;;
44816;SDS011;30529;53.570;9.964;2023-03-01T01:53:25;9.23;;;5.10;;
44816;SDS011;30529;53.570;9.964;2023-03-01T01:55:53;8.13;;;4.90;;
44816;SDS011;30529;53.570;9.964;2023-03-01T01:58:22;8.57;;;5.40;;
44816;SDS011;30529;53.570;9.964;2023-03-01T02:00:51;8.93;;;5.17;;
44816;SDS011;30529;53.570;9.964;2023-03-01T02:03:25;12.73;;;4.67;;
44816;SDS011;30529;53.570;9.964;2023-03-01T02:08:40;12.43;;;4.80;;
44816;SDS011;30529;53.570;9.964;2023-03-01T02:11:07;12.10;;;4.93;;
44816;SDS011;30529;53.570;9.964;2023-03-01T02:13:35;8.33;;;4.20;;
44816;SDS011;30529;53.570;9.964;2023-03-01T02:16:03;6.70;;;3.67;;
44816;SDS011;30529;53.570;9.964;2023-03-01T02:18:40;11.27;;;4.67;;
44816;SDS011;30529;53.570;9.964;2023-03-01T02:21:13;9.63;;;4.53;;
44816;SDS011;30529;53.570;9.964;2023-03-01T02:23:49;9.60;;;4.50;;
44816;SDS011;30529;53.570;9.964;2023-03-01T02:29:10;8.10;;;4.60;;
44816;SDS011;30529;53.570;9.964;2023-03-01T02:31:36;8.67;;;4.53;;
44816;SDS011;30529;53.570;9.964;2023-03-01T02:34:10;8.43;;;4.30;;
44816;SDS011;30529;53.570;9.964;2023-03-01T02:36:49;7.67;;;4.53;;
44816;SDS011;30529;53.570;9.964;2023-03-01T02:39:27;7.30;;;4.63;;
44816;SDS011;30529;53.570;9.964;2023-03-01T02:41:57;7.07;;;4.40;;
44816;SDS011;30529;53.570;9.964;2023-03-01T02:44:24;7.27;;;4.13;;
44816;SDS011;30529;53.570;9.964;2023-03-01T02:46:51;9.33;;;4.20;;
44816;SDS011;30529;53.570;9.964;2023-03-01T02:49:21;9.67;;;3.93;;
44816;SDS011;30529;53.570;9.964;2023-03-01T02:54:47;9.00;;;4.10;;
44816;SDS011;30529;53.570;9.964;2023-03-01T02:57:26;11.87;;;4.10;;
44816;SDS011;30529;53.570;9.964;2023-03-01T02:59:54;9.10;;;3.80;;
44816;SDS011;30529;53.570;9.964;2023-03-01T03:02:23;5.67;;;4.00;;
44816;SDS011;30529;53.570;9.964;2023-03-01T03:07:35;6.17;;;3.77;;
44816;SDS011;30529;53.570;9.964;2023-03-01T03:10:04;7.20;;;4.20;;
44816;SDS011;30529;53.570;9.964;2023-03-01T03:12:31;5.60;;;3.33;;
44816;SDS011;30529;53.570;9.964;2023-03-01T03:14:57;5.07;;;3.57;;
44816;SDS011;30529;53.570;9.964;2023-03-01T03:17:23;6.00;;;3.40;;
44816;SDS011;30529;53.570;9.964;2023-03-01T03:19:50;10.97;;;3.70;;
44816;SDS011;30529;53.570;9.964;2023-03-01T03:22:16;7.43;;;3.97;;
44816;SDS011;30529;53.570;9.964;2023-03-01T03:24:42;5.53;;;3.50;;
44816;SDS011;30529;53.570;9.964;2023-03-01T03:27:07;7.00;;;3.90;;
44816;SDS011;30529;53.570;9.964;2023-03-01T03:29:33;10.87;;;5.10;;
44816;SDS011;30529;53.570;9.964;2023-03-01T03:31:59;10.27;;;4.20;;
44816;SDS011;30529;53.570;9.964;2023-03-01T03:34:25;7.37;;;4.03;;
44816;SDS011;30529;53.570;9.964;2023-03-01T03:36:55;9.47;;;3.90;;
44816;SDS011;30529;53.570;9.964;2023-03-01T03:39:27;8.97;;;3.67;;
44816;SDS011;30529;53.570;9.964;2023-03-01T03:41:54;7.80;;;4.03;;
44816;SDS011;30529;53.570;9.964;2023-03-01T03:44:20;7.50;;;4.13;;
44816;SDS011;30529;53.570;9.964;2023-03-01T03:46:47;5.23;;;3.40;;
44816;SDS011;30529;53.570;9.964;2023-03-01T03:49:13;6.63;;;3.23;;
44816;SDS011;30529;53.570;9.964;2023-03-01T03:51:39;7.90;;;3.67;;
44816;SDS011;30529;53.570;9.964;2023-03-01T03:54:05;6.40;;;3.57;;
44816;SDS011;30529;53.570;9.964;2023-03-01T03:56:31;7.70;;;3.43;;
44816;SDS011;30529;53.570;9.964;2023-03-01T03:58:57;9.03;;;3.30;;
44816;SDS011;30529;53.570;9.964;2023-03-01T04:01:23;8.73;;;3.37;;
44816;SDS011;30529;53.570;9.964;2023-03-01T04:03:48;4.47;;;3.10;;
44816;SDS011;30529;53.570;9.964;2023-03-01T04:06:19;6.97;;;3.27;;
44816;SDS011;30529;53.570;9.964;2023-03-01T04:08:46;4.87;;;3.57;;
44816;SDS011;30529;53.570;9.964;2023-03-01T04:11:11;5.97;;;3.27;;
44816;SDS011;30529;53.570;9.964;2023-03-01T04:13:54;6.63;;;3.77;;
44816;SDS011;30529;53.570;9.964;2023-03-01T04:16:22;6.77;;;3.20;;
44816;SDS011;30529;53.570;9.964;2023-03-01T04:18:48;5.83;;;3.20;;
44816;SDS011;30529;53.570;9.964;2023-03-01T04:21:14;6.00;;;2.43;;
44816;SDS011;30529;53.570;9.964;2023-03-01T04:23:40;5.47;;;3.33;;
44816;SDS011;30529;53.570;9.964;2023-03-01T04:26:07;6.20;;;3.00;;
44816;SDS011;30529;53.570;9.964;2023-03-01T04:28:36;7.67;;;3.30;;
44816;SDS011;30529;53.570;9.964;2023-03-01T04:31:06;5.43;;;3.13;;
44816;SDS011;30529;53.570;9.964;2023-03-01T04:33:44;5.37;;;2.83;;
44816;SDS011;30529;53.570;9.964;2023-03-01T04:36:13;5.47;;;3.20;;
44816;SDS011;30529;53.570;9.964;2023-03-01T04:38:40;7.20;;;3.60;;
44816;SDS011;30529;53.570;9.964;2023-03-01T04:41:07;10.47;;;4.33;;
44816;SDS011;30529;53.570;9.964;2023-03-01T04:43:36;8.73;;;4.13;;
44816;SDS011;30529;53.570;9.964;2023-03-01T04:46:04;5.67;;;3.00;;
44816;SDS011;30529;53.570;9.964;2023-03-01T04:48:36;4.97;;;3.07;;
44816;SDS011;30529;53.570;9.964;2023-03-01T04:51:03;5.13;;;2.63;;
44816;SDS011;30529;53.570;9.964;2023-03-01T04:53:29;5.73;;;2.70;;
44816;SDS011;30529;53.570;9.964;2023-03-01T04:55:56;13.70;;;3.23;;
44816;SDS011;30529;53.570;9.964;2023-03-01T04:58:25;5.07;;;3.30;;
44816;SDS011;30529;53.570;9.964;2023-03-01T05:00:52;5.37;;;2.80;;
44816;SDS011;30529;53.570;9.964;2023-03-01T05:03:19;6.03;;;2.87;;
44816;SDS011;30529;53.570;9.964;2023-03-01T05:05:46;7.13;;;3.07;;
44816;SDS011;30529;53.570;9.964;2023-03-01T05:08:13;6.13;;;2.70;;
44816;SDS011;30529;53.570;9.964;2023-03-01T05:10:47;6.57;;;2.50;;
44816;SDS011;30529;53.570;9.964;2023-03-01T05:13:17;7.43;;;3.10;;
44816;SDS011;30529;53.570;9.964;2023-03-01T05:15:57;8.80;;;2.87;;
44816;SDS011;30529;53.570;9.964;2023-03-01T05:18:25;5.13;;;2.70;;
44816;SDS011;30529;53.570;9.964;2023-03-01T05:20:52;6.57;;;2.87;;
44816;SDS011;30529;53.570;9.964;2023-03-01T05:23:26;9.30;;;2.77;;
44816;SDS011;30529;53.570;9.964;2023-03-01T05:25:52;5.97;;;3.10;;
44816;SDS011;30529;53.570;9.964;2023-03-01T05:28:19;3.80;;;2.57;;
44816;SDS011;30529;53.570;9.964;2023-03-01T05:30:46;7.07;;;3.03;;
44816;SDS011;30529;53.570;9.964;2023-03-01T05:33:12;4.87;;;2.80;;
44816;SDS011;30529;53.570;9.964;2023-03-01T05:35:42;6.83;;;2.73;;
44816;SDS011;30529;53.570;9.964;2023-03-01T05:38:09;9.63;;;3.33;;
44816;SDS011;30529;53.570;9.964;2023-03-01T05:40:43;6.80;;;2.77;;
44816;SDS011;30529;53.570;9.964;2023-03-01T05:43:11;8.57;;;3.00;;
44816;SDS011;30529;53.570;9.964;2023-03-01T05:45:39;7.77;;;3.00;;
44816;SDS011;30529;53.570;9.964;2023-03-01T05:48:06;8.23;;;2.80;;
44816;SDS011;30529;53.570;9.964;2023-03-01T05:50:34;6.20;;;3.00;;
44816;SDS011;30529;53.570;9.964;2023-03-01T05:53:03;9.57;;;2.80;;
44816;SDS011;30529;53.570;9.964;2023-03-01T05:55:37;4.63;;;2.70;;
44816;SDS011;30529;53.570;9.964;2023-03-01T05:58:05;6.40;;;2.77;;
44816;SDS011;30529;53.570;9.964;2023-03-01T06:00:36;8.13;;;2.93;;
44816;SDS011;30529;53.570;9.964;2023-03-01T06:03:02;4.93;;;2.77;;
44816;SDS011;30529;53.570;9.964;2023-03-01T06:05:29;5.17;;;2.80;;
44816;SDS011;30529;53.570;9.964;2023-03-01T06:07:55;6.43;;;2.87;;
44816;SDS011;30529;53.570;9.964;2023-03-01T06:10:24;9.90;;;3.00;;
44816;SDS011;30529;53.570;9.964;2023-03-01T06:12:50;5.20;;;2.67;;
44816;SDS011;30529;53.570;9.964;2023-03-01T06:15:16;9.30;;;3.27;;
44816;SDS011;30529;53.570;9.964;2023-03-01T06:17:43;5.43;;;3.00;;
44816;SDS011;30529;53.570;9.964;2023-03-01T06:20:12;8.17;;;3.80;;
44816;SDS011;30529;53.570;9.964;2023-03-01T06:22:44;10.10;;;3.40;;
44816;SDS011;30529;53.570;9.964;2023-03-01T06:25:11;5.87;;;3.33;;
44816;SDS011;30529;53.570;9.964;2023-03-01T06:27:38;7.43;;;3.17;;
44816;SDS011;30529;53.570;9.964;2023-03-01T06:30:05;7.53;;;2.70;;
44816;SDS011;30529;53.570;9.964;2023-03-01T06:32:33;6.83;;;3.10;;
44816;SDS011;30529;53.570;9.964;2023-03-01T06:34:59;5.77;;;2.83;;
44816;SDS011;30529;53.570;9.964;2023-03-01T06:37:25;7.03;;;3.53;;
44816;SDS011;30529;53.570;9.964;2023-03-01T06:39:52;6.73;;;3.40;;
44816;SDS011;30529;53.570;9.964;2023-03-01T06:42:17;6.63;;;3.00;;
44816;SDS011;30529;53.570;9.964;2023-03-01T06:44:46;7.57;;;3.43;;
44816;SDS011;30529;53.570;9.964;2023-03-01T06:47:12;6.73;;;3.20;;
44816;SDS011;30529;53.570;9.964;2023-03-01T06:49:38;12.97;;;3.40;;
44816;SDS011;30529;53.570;9.964;2023-03-01T06:54:40;6.93;;;3.40;;
44816;SDS011;30529;53.570;9.964;2023-03-01T06:57:09;8.50;;;4.37;;
44816;SDS011;30529;53.570;9.964;2023-03-01T06:59:35;9.63;;;3.20;;
44816;SDS011;30529;53.570;9.964;2023-03-01T07:02:01;9.47;;;3.20;;
44816;SDS011;30529;53.570;9.964;2023-03-01T07:04:27;8.83;;;3.33;;
44816;SDS011;30529;53.570;9.964;2023-03-01T07:06:56;5.07;;;3.43;;
44816;SDS011;30529;53.570;9.964;2023-03-01T07:09:23;8.47;;;3.53;;
44816;SDS011;30529;53.570;9.964;2023-03-01T07:11:49;6.90;;;3.17;;
44816;SDS011;30529;53.570;9.964;2023-03-01T07:14:16;7.13;;;2.93;;
44816;SDS011;30529;53.570;9.964;2023-03-01T07:16:42;5.63;;;2.80;;
44816;SDS011;30529;53.570;9.964;2023-03-01T07:19:08;11.70;;;3.57;;
44816;SDS011;30529;53.570;9.964;2023-03-01T07:21:34;5.67;;;3.50;;
44816;SDS011;30529;53.570;9.964;2023-03-01T07:24:00;8.27;;;3.40;;
44816;SDS011;30529;53.570;9.964;2023-03-01T07:26:26;6.30;;;3.43;;
44816;SDS011;30529;53.570;9.964;2023-03-01T07:28:52;6.23;;;3.20;;
44816;SDS011;30529;53.570;9.964;2023-03-01T07:31:18;8.30;;;3.83;;
44816;SDS011;30529;53.570;9.964;2023-03-01T07:33:44;7.50;;;3.97;;
44816;SDS011;30529;53.570;9.964;2023-03-01T07:36:10;12.07;;;4.43;;
44816;SDS011;30529;53.570;9.964;2023-03-01T07:38:35;14.23;;;5.33;;
44816;SDS011;30529;53.570;9.964;2023-03-01T07:41:02;8.50;;;4.50;;
44816;SDS011;30529;53.570;9.964;2023-03-01T07:43:29;8.80;;;4.20;;
44816;SDS011;30529;53.570;9.964;2023-03-01T07:45:59;8.40;;;4.33;;
44816;SDS011;30529;53.570;9.964;2023-03-01T07:48:30;22.50;;;5.00;;
44816;SDS011;30529;53.570;9.964;2023-03-01T07:51:00;9.23;;;4.60;;
44816;SDS011;30529;53.570;9.964;2023-03-01T07:53:27;11.47;;;4.43;;
44816;SDS011;30529;53.570;9.964;2023-03-01T07:56:04;9.80;;;5.10;;
44816;SDS011;30529;53.570;9.964;2023-03-01T07:58:33;10.43;;;5.00;;
44816;SDS011;30529;53.570;9.964;2023-03-01T08:01:05;11.13;;;4.80;;
44816;SDS011;30529;53.570;9.964;2023-03-01T08:03:32;8.53;;;4.53;;
44816;SDS011;30529;53.570;9.964;2023-03-01T08:06:00;9.50;;;4.97;;
44816;SDS011;30529;53.570;9.964;2023-03-01T08:08:27;11.70;;;4.93;;
44816;SDS011;30529;53.570;9.964;2023-03-01T08:10:55;12.60;;;6.33;;
44816;SDS011;30529;53.570;9.964;2023-03-01T08:13:22;12.23;;;7.47;;
44816;SDS011;30529;53.570;9.964;2023-03-01T08:15:48;11.80;;;6.70;;
44816;SDS011;30529;53.570;9.964;2023-03-01T08:18:15;12.33;;;6.47;;
44816;SDS011;30529;53.570;9.964;2023-03-01T08:20:42;12.77;;;6.27;;
44816;SDS011;30529;53.570;9.964;2023-03-01T08:23:08;12.10;;;6.20;;
44816;SDS011;30529;53.570;9.964;2023-03-01T08:25:34;12.13;;;6.60;;
44816;SDS011;30529;53.570;9.964;2023-03-01T08:28:00;12.83;;;6.40;;
44816;SDS011;30529;53.570;9.964;2023-03-01T08:30:26;13.50;;;6.67;;
44816;SDS011;30529;53.570;9.964;2023-03-01T08:32:52;12.47;;;6.30;;
44816;SDS011;30529;53.570;9.964;2023-03-01T08:35:19;13.53;;;7.30;;
44816;SDS011;30529;53.570;9.964;2023-03-01T08:37:46;10.37;;;6.93;;
44816;SDS011;30529;53.570;9.964;2023-03-01T08:40:12;12.57;;;7.57;;
44816;SDS011;30529;53.570;9.964;2023-03-01T08:42:39;12.07;;;7.60;;
44816;SDS011;30529;53.570;9.964;2023-03-01T08:45:09;14.30;;;7.90;;
44816;SDS011;30529;53.570;9.964;2023-03-01T08:47:35;13.10;;;7.53;;
44816;SDS011;30529;53.570;9.964;2023-03-01T08:50:01;13.97;;;7.50;;
44816;SDS011;30529;53.570;9.964;2023-03-01T08:52:29;13.93;;;8.37;;
44816;SDS011;30529;53.570;9.964;2023-03-01T08:54:55;16.43;;;7.87;;
44816;SDS011;30529;53.570;9.964;2023-03-01T08:57:24;13.90;;;7.67;;
44816;SDS011;30529;53.570;9.964;2023-03-01T08:59:50;14.00;;;8.03;;
44816;SDS011;30529;53.570;9.964;2023-03-01T09:02:17;11.93;;;7.00;;
44816;SDS011;30529;53.570;9.964;2023-03-01T09:04:44;12.63;;;7.67;;
44816;SDS011;30529;53.570;9.964;2023-03-01T09:07:10;10.87;;;7.13;;
44816;SDS011;30529;53.570;9.964;2023-03-01T09:09:36;12.83;;;7.27;;
44816;SDS011;30529;53.570;9.964;2023-03-01T09:12:03;10.87;;;7.17;;
44816;SDS011;30529;53.570;9.964;2023-03-01T09:14:29;11.73;;;7.43;;
44816;SDS011;30529;53.570;9.964;2023-03-01T09:16:55;12.80;;;7.57;;
44816;SDS011;30529;53.570;9.964;2023-03-01T09:19:22;11.40;;;7.40;;
44816;SDS011;30529;53.570;9.964;2023-03-01T09:21:48;10.73;;;7.30;;
44816;SDS011;30529;53.570;9.964;2023-03-01T09:24:22;12.40;;;8.73;;
44816;SDS011;30529;53.570;9.964;2023-03-01T09:26:49;12.47;;;7.50;;
44816;SDS011;30529;53.570;9.964;2023-03-01T09:29:18;17.23;;;10.17;;
44816;SDS011;30529;53.570;9.964;2023-03-01T09:31:44;13.07;;;8.57;;
44816;SDS011;30529;53.570;9.964;2023-03-01T09:34:10;12.53;;;8.97;;
44816;SDS011;30529;53.570;9.964;2023-03-01T09:36:36;15.20;;;8.57;;
44816;SDS011;30529;53.570;9.964;2023-03-01T09:39:02;13.87;;;8.27;;
44816;SDS011;30529;53.570;9.964;2023-03-01T09:44:36;14.27;;;8.00;;
44816;SDS011;30529;53.570;9.964;2023-03-01T09:47:44;13.53;;;8.13;;
44816;SDS011;30529;53.570;9.964;2023-03-01T09:50:11;12.47;;;7.70;;
44816;SDS011;30529;53.570;9.964;2023-03-01T09:52:41;13.77;;;8.03;;
44816;SDS011;30529;53.570;9.964;2023-03-01T09:55:20;13.53;;;7.90;;
44816;SDS011;30529;53.570;9.964;2023-03-01T09:57:55;14.23;;;7.80;;
44816;SDS011;30529;53.570;9.964;2023-03-01T10:00:44;12.63;;;7.67;;
44816;SDS011;30529;53.570;9.964;2023-03-01T10:03:16;12.23;;;8.27;;
44816;SDS011;30529;53.570;9.964;2023-03-01T10:08:29;14.10;;;8.07;;
44816;SDS011;30529;53.570;9.964;2023-03-01T10:11:03;10.77;;;7.60;;
44816;SDS011;30529;53.570;9.964;2023-03-01T10:14:18;13.77;;;7.57;;
44816;SDS011;30529;53.570;9.964;2023-03-01T10:16:26;13.03;;;7.20;;
44816;SDS011;30529;53.570;9.964;2023-03-01T10:19:03;11.13;;;6.77;;
44816;SDS011;30529;53.570;9.964;2023-03-01T10:21:30;11.27;;;7.30;;
44816;SDS011;30529;53.570;9.964;2023-03-01T10:24:24;11.50;;;6.43;;
44816;SDS011;30529;53.570;9.964;2023-03-01T10:26:54;13.70;;;7.07;;
44816;SDS011;30529;53.570;9.964;2023-03-01T10:29:29;11.13;;;7.43;;
44816;SDS011;30529;53.570;9.964;2023-03-01T10:32:03;11.00;;;6.57;;
44816;SDS011;30529;53.570;9.964;2023-03-01T10:34:33;9.73;;;5.90;;
44816;SDS011;30529;53.570;9.964;2023-03-01T10:37:11;10.77;;;6.83;;
44816;SDS011;30529;53.570;9.964;2023-03-01T10:39:37;13.00;;;7.67;;
44816;SDS011;30529;53.570;9.964;2023-03-01T10:42:30;12.57;;;7.30;;
44816;SDS011;30529;53.570;9.964;2023-03-01T10:47:48;12.90;;;7.40;;
44816;SDS011;30529;53.570;9.964;2023-03-01T10:53:51;11.00;;;6.10;;
44816;SDS011;30529;53.570;9.964;2023-03-01T10:59:19;8.37;;;5.93;;
44816;SDS011;30529;53.570;9.964;2023-03-01T11:02:04;13.07;;;5.90;;
44816;SDS011;30529;53.570;9.964;2023-03-01T11:05:18;11.60;;;6.17;;
44816;SDS011;30529;53.570;9.964;2023-03-01T11:07:52;11.00;;;6.60;;
44816;SDS011;30529;53.570;9.964;2023-03-01T11:10:22;9.63;;;6.33;;
44816;SDS011;30529;53.570;9.964;2023-03-01T11:13:05;11.07;;;6.37;;
44816;SDS011;30529;53.570;9.964;2023-03-01T11:16:12;13.53;;;7.53;;
44816;SDS011;30529;53.570;9.964;2023-03-01T11:18:40;11.03;;;6.70;;
44816;SDS011;30529;53.570;9.964;2023-03-01T11:21:25;12.00;;;7.13;;
44816;SDS011;30529;53.570;9.964;2023-03-01T11:24:03;11.20;;;5.40;;
44816;SDS011;30529;53.570;9.964;2023-03-01T11:27:00;11.03;;;5.93;;
44816;SDS011;30529;53.570;9.964;2023-03-01T11:29:32;8.53;;;5.87;;
44816;SDS011;30529;53.570;9.964;2023-03-01T11:32:06;9.30;;;5.63;;
44816;SDS011;30529;53.570;9.964;2023-03-01T11:34:42;10.07;;;5.90;;
44816;SDS011;30529;53.570;9.964;2023-03-01T11:40:36;12.17;;;5.80;;
44816;SDS011;30529;53.570;9.964;2023-03-01T11:52:46;8.43;;;5.07;;
44816;SDS011;30529;53.570;9.964;2023-03-01T11:58:35;7.23;;;5.00;;
44816;SDS011;30529;53.570;9.964;2023-03-01T12:01:21;11.47;;;5.33;;
44816;SDS011;30529;53.570;9.964;2023-03-01T12:23:34;8.83;;;4.83;;
44816;SDS011;30529;53.570;9.964;2023-03-01T12:29:37;6.10;;;4.20;;
44816;SDS011;30529;53.570;9.964;2023-03-01T12:43:47;7.07;;;4.47;;
44816;SDS011;30529;53.570;9.964;2023-03-01T12:49:15;7.87;;;4.67;;
44816;SDS011;30529;53.570;9.964;2023-03-01T12:52:00;6.90;;;4.70;;
44816;SDS011;30529;53.570;9.964;2023-03-01T12:54:36;7.50;;;4.80;;
44816;SDS011;30529;53.570;9.964;2023-03-01T12:57:18;6.83;;;4.63;;
44816;SDS011;30529;53.570;9.964;2023-03-01T13:00:17;10.10;;;4.97;;
44816;SDS011;30529;53.570;9.964;2023-03-01T13:03:00;11.20;;;5.53;;
44816;SDS011;30529;53.570;9.964;2023-03-01T13:05:51;7.53;;;4.83;;
44816;SDS011;30529;53.570;9.964;2023-03-01T13:11:27;6.53;;;5.00;;
44816;SDS011;30529;53.570;9.964;2023-03-01T13:16:54;7.00;;;4.87;;
44816;SDS011;30529;53.570;9.964;2023-03-01T13:19:28;6.13;;;4.17;;
44816;SDS011;30529;53.570;9.964;2023-03-01T13:22:45;6.00;;;3.90;;
44816;SDS011;30529;53.570;9.964;2023-03-01T13:25:15;6.00;;;3.50;;
44816;SDS011;30529;53.570;9.964;2023-03-01T13:27:45;6.33;;;3.73;;
44816;SDS011;30529;53.570;9.964;2023-03-01T13:34:38;6.43;;;4.30;;
44816;SDS011;30529;53.570;9.964;2023-03-01T13:39:04;7.43;;;4.33;;
44816;SDS011;30529;53.570;9.964;2023-03-01T13:41:54;6.47;;;4.27;;
44816;SDS011;30529;53.570;9.964;2023-03-01T13:44:37;8.20;;;4.60;;
44816;SDS011;30529;53.570;9.964;2023-03-01T13:49:56;6.23;;;4.47;;
44816;SDS011;30529;53.570;9.964;2023-03-01T13:54:58;6.20;;;4.67;;
44816;SDS011;30529;53.570;9.964;2023-03-01T13:57:32;6.60;;;4.40;;
44816;SDS011;30529;53.570;9.964;2023-03-01T14:00:03;7.00;;;4.70;;
44816;SDS011;30529;53.570;9.964;2023-03-01T14:02:58;7.30;;;4.23;;
44816;SDS011;30529;53.570;9.964;2023-03-01T14:05:42;7.83;;;4.53;;
44816;SDS011;30529;53.570;9.964;2023-03-01T14:08:27;7.63;;;4.87;;
44816;SDS011;30529;53.570;9.964;2023-03-01T14:17:08;7.47;;;4.13;;
44816;SDS011;30529;53.570;9.964;2023-03-01T14:20:09;7.87;;;4.50;;
44816;SDS011;30529;53.570;9.964;2023-03-01T14:22:50;5.40;;;3.70;;
44816;SDS011;30529;53.570;9.964;2023-03-01T14:25:31;7.63;;;4.20;;
44816;SDS011;30529;53.570;9.964;2023-03-01T14:28:21;5.73;;;3.57;;
44816;SDS011;30529;53.570;9.964;2023-03-01T14:34:23;4.73;;;3.53;;
44816;SDS011;30529;53.570;9.964;2023-03-01T14:36:59;6.80;;;3.63;;
44816;SDS011;30529;53.570;9.964;2023-03-01T14:39:58;5.60;;;3.57;;
44816;SDS011;30529;53.570;9.964;2023-03-01T14:42:40;7.07;;;3.77;;
44816;SDS011;30529;53.570;9.964;2023-03-01T14:45:26;5.70;;;3.80;;
44816;SDS011;30529;53.570;9.964;2023-03-01T14:48:04;7.50;;;3.83;;
44816;SDS011;30529;53.570;9.964;2023-03-01T14:50:35;5.43;;;4.03;;
44816;SDS011;30529;53.570;9.964;2023-03-01T14:53:18;5.77;;;3.60;;
44816;SDS011;30529;53.570;9.964;2023-03-01T14:55:59;5.50;;;3.90;;
44816;SDS011;30529;53.570;9.964;2023-03-01T14:58:40;9.07;;;4.03;;
44816;SDS011;30529;53.570;9.964;2023-03-01T15:01:10;7.73;;;4.30;;
44816;SDS011;30529;53.570;9.964;2023-03-01T15:03:47;6.40;;;4.57;;
44816;SDS011;30529;53.570;9.964;2023-03-01T15:06:20;6.63;;;4.20;;
44816;SDS011;30529;53.570;9.964;2023-03-01T15:08:49;6.37;;;3.93;;
44816;SDS011;30529;53.570;9.964;2023-03-01T15:11:32;6.90;;;4.90;;
44816;SDS011;30529;53.570;9.964;2023-03-01T15:14:24;6.90;;;4.70;;
44816;SDS011;30529;53.570;9.964;2023-03-01T15:16:57;8.33;;;4.50;;
44816;SDS011;30529;53.570;9.964;2023-03-01T15:19:24;6.90;;;4.60;;
44816;SDS011;30529;53.570;9.964;2023-03-01T15:21:57;7.70;;;4.10;;
44816;SDS011;30529;53.570;9.964;2023-03-01T15:24:42;6.80;;;4.37;;
44816;SDS011;30529;53.570;9.964;2023-03-01T15:27:18;6.00;;;3.87;;
44816;SDS011;30529;53.570;9.964;2023-03-01T15:30:00;8.70;;;5.20;;
44816;SDS011;30529;53.570;9.964;2023-03-01T15:32:35;5.80;;;4.27;;
44816;SDS011;30529;53.570;9.964;2023-03-01T15:38:32;7.47;;;4.50;;
44816;SDS011;30529;53.570;9.964;2023-03-01T15:41:46;8.17;;;5.23;;
44816;SDS011;30529;53.570;9.964;2023-03-01T15:44:17;7.67;;;4.60;;
44816;SDS011;30529;53.570;9.964;2023-03-01T15:46:55;9.00;;;5.07;;
44816;SDS011;30529;53.570;9.964;2023-03-01T15:49:39;13.07;;;6.43;;
44816;SDS011;30529;53.570;9.964;2023-03-01T15:52:18;10.10;;;5.37;;
44816;SDS011;30529;53.570;9.964;2023-03-01T15:55:19;8.67;;;5.67;;
44816;SDS011;30529;53.570;9.964;2023-03-01T15:58:17;8.97;;;6.00;;
44816;SDS011;30529;53.570;9.964;2023-03-01T16:01:07;11.50;;;6.77;;
44816;SDS011;30529;53.570;9.964;2023-03-01T16:03:47;13.53;;;7.07;;
44816;SDS011;30529;53.570;9.964;2023-03-01T16:06:24;11.50;;;6.57;;
44816;SDS011;30529;53.570;9.964;2023-03-01T16:08:56;13.80;;;7.00;;
44816;SDS011;30529;53.570;9.964;2023-03-01T16:11:36;12.27;;;7.30;;
44816;SDS011;30529;53.570;9.964;2023-03-01T16:14:12;10.93;;;6.83;;
44816;SDS011;30529;53.570;9.964;2023-03-01T16:16:46;10.77;;;7.07;;
44816;SDS011;30529;53.570;9.964;2023-03-01T16:19:28;11.93;;;7.47;;
44816;SDS011;30529;53.570;9.964;2023-03-01T16:22:20;15.97;;;7.80;;
44816;SDS011;30529;53.570;9.964;2023-03-01T16:24:53;13.13;;;8.03;;
44816;SDS011;30529;53.570;9.964;2023-03-01T16:27:43;12.67;;;7.23;;
44816;SDS011;30529;53.570;9.964;2023-03-01T16:30:45;10.47;;;6.80;;
44816;SDS011;30529;53.570;9.964;2023-03-01T16:33:29;11.03;;;7.63;;
44816;SDS011;30529;53.570;9.964;2023-03-01T16:36:19;11.27;;;6.73;;
44816;SDS011;30529;53.570;9.964;2023-03-01T16:38:54;10.93;;;7.23;;
44816;SDS011;30529;53.570;9.964;2023-03-01T16:41:23;7.80;;;5.40;;
44816;SDS011;30529;53.570;9.964;2023-03-01T16:43:49;8.97;;;5.87;;
44816;SDS011;30529;53.570;9.964;2023-03-01T16:46:16;8.37;;;5.60;;
44816;SDS011;30529;53.570;9.964;2023-03-01T16:48:48;9.73;;;5.67;;
44816;SDS011;30529;53.570;9.964;2023-03-01T16:51:15;8.47;;;5.27;;
44816;SDS011;30529;53.570;9.964;2023-03-01T16:53:41;9.80;;;5.40;;
44816;SDS011;30529;53.570;9.964;2023-03-01T16:56:08;8.33;;;5.40;;
44816;SDS011;30529;53.570;9.964;2023-03-01T16:58:36;12.40;;;5.60;;
44816;SDS011;30529;53.570;9.964;2023-03-01T17:01:08;10.70;;;5.93;;
44816;SDS011;30529;53.570;9.964;2023-03-01T17:03:36;10.93;;;6.23;;
44816;SDS011;30529;53.570;9.964;2023-03-01T17:06:03;10.43;;;6.67;;